Terminal Aerodrome Forecast
Issued by NWS Portland, ME

Home | Current Version | Previous Version | Text Only | Print | Product List | Glossary On
Versions: 1 2 3 4 5 6 7 8 9 10 11 12 13 14 15 16 17 18 19 20 21 22 23 24 25 26 27 28 29 30 31 32 33 34 35 36 37 38
125
FTUS41 KGYX 181722
TAFPWM
TAF
KPWM 181722Z 1818/1918 31009G18KT P6SM SCT040
     FM182200 31004KT P6SM SKC
     FM191700 19010G17KT P6SM SCT100=

USA.gov is the U.S. government's official web portal to all federal, state and local government web resources and services.